createdAt,value
2018-09-30T00:00:30.836Z,0.00
2018-09-30T00:01:30.805Z,0.00
2018-09-30T00:02:30.778Z,0.00
2018-09-30T00:03:30.759Z,0.00
2018-09-30T00:04:30.724Z,0.00
2018-09-30T00:05:30.701Z,0.00
2018-09-30T00:06:30.679Z,0.00
2018-09-30T00:07:30.640Z,0.00
2018-09-30T00:08:30.619Z,0.00
2018-09-30T00:09:30.592Z,0.00
2018-09-30T00:10:30.565Z,0.00
2018-09-30T00:11:30.541Z,0.00
2018-09-30T00:12:30.509Z,0.00
2018-09-30T00:13:30.483Z,0.00
2018-09-30T00:14:30.460Z,0.00
2018-09-30T00:15:30.427Z,0.00
2018-09-30T00:16:30.399Z,0.00
2018-09-30T00:17:30.375Z,0.00
2018-09-30T00:18:30.346Z,0.00
2018-09-30T00:19:30.382Z,0.00
2018-09-30T00:20:30.293Z,0.00
2018-09-30T00:21:30.267Z,0.00
2018-09-30T00:22:30.240Z,0.00
2018-09-30T00:23:30.211Z,0.00
2018-09-30T00:24:30.183Z,0.00
2018-09-30T00:25:30.163Z,0.00
2018-09-30T00:26:30.128Z,0.00
2018-09-30T00:27:30.109Z,0.00
2018-09-30T00:28:30.076Z,0.00
2018-09-30T00:29:30.057Z,0.00
2018-09-30T00:30:30.028Z,0.00
2018-09-30T00:31:29.991Z,0.00
2018-09-30T00:32:29.967Z,0.00
2018-09-30T00:33:29.948Z,0.00
2018-09-30T00:34:29.913Z,0.00
2018-09-30T00:35:29.884Z,0.00
2018-09-30T00:36:29.859Z,0.00
2018-09-30T00:37:29.826Z,0.00
2018-09-30T00:38:29.804Z,0.00
2018-09-30T00:39:29.773Z,0.00
2018-09-30T00:40:29.747Z,0.00
2018-09-30T00:41:29.729Z,0.00
2018-09-30T00:42:29.699Z,0.00
2018-09-30T00:43:29.674Z,0.00
2018-09-30T00:44:29.648Z,0.00
2018-09-30T00:45:29.610Z,0.00
2018-09-30T00:46:29.586Z,0.00
2018-09-30T00:47:29.562Z,0.00
2018-09-30T00:48:29.531Z,0.00
2018-09-30T00:49:29.501Z,0.00
2018-09-30T00:50:29.485Z,0.00
2018-09-30T00:51:29.445Z,0.00
2018-09-30T00:52:29.426Z,0.00
2018-09-30T00:53:29.398Z,0.00
2018-09-30T00:54:29.365Z,0.00
2018-09-30T00:55:29.348Z,0.00
2018-09-30T00:56:29.312Z,0.00
2018-09-30T00:57:29.311Z,0.00
2018-09-30T00:58:29.256Z,0.00
2018-09-30T00:59:29.237Z,0.00
2018-09-30T01:00:29.210Z,0.00
2018-09-30T01:01:29.175Z,0.00
2018-09-30T01:02:29.158Z,0.00
2018-09-30T01:03:29.121Z,0.00
2018-09-30T01:04:29.099Z,0.00
2018-09-30T01:05:29.074Z,0.00
2018-09-30T01:06:29.048Z,0.00
2018-09-30T01:07:29.017Z,0.00
2018-09-30T01:08:28.985Z,0.00
2018-09-30T01:09:28.961Z,0.00
2018-09-30T01:10:28.936Z,0.00
2018-09-30T01:11:28.905Z,0.00
2018-09-30T01:12:28.889Z,0.00
2018-09-30T01:13:28.850Z,0.00
2018-09-30T01:14:28.825Z,0.00
2018-09-30T01:15:28.813Z,0.00
2018-09-30T01:16:28.770Z,0.00
2018-09-30T01:17:28.748Z,0.00
2018-09-30T01:18:28.724Z,0.00
2018-09-30T01:19:28.686Z,0.00
2018-09-30T01:20:28.662Z,0.00
2018-09-30T01:21:28.632Z,0.00
2018-09-30T01:22:28.604Z,0.00
2018-09-30T01:23:28.577Z,0.00
2018-09-30T01:24:28.559Z,0.00
2018-09-30T01:25:28.526Z,0.00
2018-09-30T01:26:28.496Z,0.00
2018-09-30T01:27:28.473Z,0.00
2018-09-30T01:28:28.441Z,0.00
2018-09-30T01:29:28.424Z,0.00
2018-09-30T01:30:28.392Z,0.00
2018-09-30T01:31:28.361Z,0.00
2018-09-30T01:32:28.339Z,0.00
2018-09-30T01:33:28.303Z,0.00
2018-09-30T01:34:28.280Z,0.00
2018-09-30T01:35:28.253Z,0.00
2018-09-30T01:36:28.223Z,0.00
2018-09-30T01:37:28.199Z,0.00
2018-09-30T01:38:28.169Z,0.00
2018-09-30T01:39:28.145Z,0.00
2018-09-30T01:40:28.116Z,0.00
2018-09-30T01:41:28.088Z,0.00
2018-09-30T01:42:28.064Z,0.00
2018-09-30T01:43:28.043Z,0.00
2018-09-30T01:44:28.007Z,0.00
2018-09-30T01:45:27.982Z,0.00
2018-09-30T01:46:27.954Z,0.00
2018-09-30T01:47:27.926Z,0.00
2018-09-30T01:48:27.904Z,0.00
2018-09-30T01:49:27.877Z,0.00
2018-09-30T01:50:27.849Z,0.00
2018-09-30T01:51:27.815Z,0.00
2018-09-30T01:52:27.793Z,0.00
2018-09-30T01:53:27.763Z,0.00
2018-09-30T01:54:27.732Z,0.00
2018-09-30T01:55:27.714Z,0.00
2018-09-30T01:56:27.686Z,0.00
2018-09-30T01:57:27.649Z,0.00
2018-09-30T01:58:27.634Z,0.00
2018-09-30T01:59:27.601Z,0.00
2018-09-30T02:00:27.567Z,0.00
2018-09-30T02:01:27.550Z,0.00
2018-09-30T02:02:27.515Z,0.00
2018-09-30T02:03:27.496Z,0.00
2018-09-30T02:04:27.468Z,0.00
2018-09-30T02:05:27.443Z,0.00
2018-09-30T02:06:27.421Z,0.00
2018-09-30T02:07:27.379Z,0.00
2018-09-30T02:08:27.353Z,0.00
2018-09-30T02:09:27.328Z,0.00
2018-09-30T02:10:27.304Z,0.00
2018-09-30T02:11:27.266Z,0.00
2018-09-30T02:12:27.257Z,0.00
2018-09-30T02:13:27.223Z,0.00
2018-09-30T02:14:27.186Z,0.00
2018-09-30T02:15:27.170Z,0.00
2018-09-30T02:16:27.140Z,0.00
2018-09-30T02:17:27.109Z,0.00
2018-09-30T02:18:27.082Z,0.00
2018-09-30T02:19:27.057Z,0.00
2018-09-30T02:20:27.027Z,0.00
2018-09-30T02:21:27.004Z,0.00
2018-09-30T02:22:26.974Z,0.00
2018-09-30T02:23:26.945Z,0.00
2018-09-30T02:24:26.922Z,0.00
2018-09-30T02:25:26.890Z,0.00
2018-09-30T02:26:26.859Z,0.00
2018-09-30T02:27:26.837Z,0.00
2018-09-30T02:28:26.807Z,0.00
2018-09-30T02:29:26.776Z,0.00
2018-09-30T02:30:26.755Z,0.00
2018-09-30T02:31:26.727Z,0.00
2018-09-30T02:32:26.697Z,0.00
2018-09-30T02:33:26.679Z,0.00
2018-09-30T02:34:26.647Z,0.00
2018-09-30T02:35:26.615Z,0.00
2018-09-30T02:36:26.599Z,0.00
2018-09-30T02:37:26.558Z,0.00
2018-09-30T02:38:26.540Z,0.00
2018-09-30T02:39:26.515Z,0.00
2018-09-30T02:40:26.487Z,0.00
2018-09-30T02:41:26.454Z,0.00
2018-09-30T02:42:26.434Z,0.00
2018-09-30T02:43:26.403Z,0.00
2018-09-30T02:44:26.373Z,0.00
2018-09-30T02:45:26.358Z,0.00
2018-09-30T02:46:26.318Z,0.00
2018-09-30T02:47:26.288Z,0.00
2018-09-30T02:48:26.265Z,0.00
2018-09-30T02:49:26.241Z,0.00
2018-09-30T02:50:26.205Z,0.00
2018-09-30T02:51:26.184Z,0.00
2018-09-30T02:52:26.155Z,0.00
2018-09-30T02:53:26.127Z,0.00
2018-09-30T02:54:26.104Z,0.00
2018-09-30T02:55:26.069Z,0.00
2018-09-30T02:56:26.042Z,0.00
2018-09-30T02:57:26.025Z,0.00
2018-09-30T02:58:25.984Z,0.00
2018-09-30T02:59:25.971Z,0.00
2018-09-30T03:00:25.943Z,0.00
2018-09-30T03:01:25.910Z,0.00
2018-09-30T03:02:25.894Z,0.00
2018-09-30T03:03:25.859Z,0.00
2018-09-30T03:04:25.820Z,0.00
2018-09-30T03:05:25.804Z,0.00
2018-09-30T03:06:25.773Z,0.00
2018-09-30T03:07:25.749Z,0.00
2018-09-30T03:08:25.719Z,0.00
2018-09-30T03:09:25.687Z,0.00
2018-09-30T03:10:25.666Z,0.00
2018-09-30T03:11:25.631Z,0.00
2018-09-30T03:12:25.605Z,0.00
2018-09-30T03:13:25.580Z,0.00
2018-09-30T03:14:25.574Z,0.00
2018-09-30T03:15:25.526Z,0.00
2018-09-30T03:16:25.493Z,0.00
2018-09-30T03:17:25.468Z,0.00
2018-09-30T03:18:25.446Z,0.00
2018-09-30T03:19:25.413Z,0.00
2018-09-30T03:20:25.393Z,0.00
2018-09-30T03:21:25.364Z,0.00
2018-09-30T03:22:25.337Z,0.00
2018-09-30T03:23:25.302Z,0.00
2018-09-30T03:24:25.297Z,0.00
2018-09-30T03:25:25.258Z,0.00
2018-09-30T03:26:25.217Z,0.00
2018-09-30T03:27:25.198Z,0.00
2018-09-30T03:28:25.166Z,0.00
2018-09-30T03:29:25.137Z,0.00
2018-09-30T03:30:25.120Z,0.00
2018-09-30T03:31:25.092Z,0.00
2018-09-30T03:32:25.065Z,0.00
2018-09-30T03:33:25.034Z,0.00
2018-09-30T03:34:25.015Z,0.00
2018-09-30T03:35:24.968Z,0.00
2018-09-30T03:36:24.945Z,0.00
2018-09-30T03:37:24.924Z,0.00
2018-09-30T03:38:24.893Z,0.00
2018-09-30T03:39:24.916Z,0.00
2018-09-30T03:40:24.841Z,0.00
2018-09-30T03:41:24.805Z,0.00
2018-09-30T03:42:24.786Z,0.00
2018-09-30T03:43:24.758Z,0.00
2018-09-30T03:44:24.733Z,0.00
2018-09-30T03:45:24.700Z,0.00
2018-09-30T03:46:24.673Z,0.00
2018-09-30T03:47:24.648Z,0.00
2018-09-30T03:48:24.619Z,0.00
2018-09-30T03:49:24.605Z,0.00
2018-09-30T03:50:24.565Z,0.00
2018-09-30T03:51:24.548Z,0.00
2018-09-30T03:52:24.513Z,0.00
2018-09-30T03:53:24.484Z,0.00
2018-09-30T03:54:24.452Z,0.00
2018-09-30T03:55:24.427Z,0.00
2018-09-30T03:56:24.396Z,0.00
2018-09-30T03:57:24.377Z,0.00
2018-09-30T03:58:24.399Z,0.00
2018-09-30T03:59:24.313Z,0.00
2018-09-30T04:00:24.290Z,0.00
2018-09-30T04:01:24.265Z,0.00
2018-09-30T04:02:24.232Z,0.00
2018-09-30T04:03:24.209Z,0.00
2018-09-30T04:04:24.184Z,0.00
2018-09-30T04:05:24.154Z,0.00
2018-09-30T04:06:24.128Z,0.00
2018-09-30T04:07:24.093Z,0.00
2018-09-30T04:08:24.073Z,0.00
2018-09-30T04:09:24.085Z,0.00
2018-09-30T04:10:24.016Z,0.00
2018-09-30T04:11:23.991Z,0.00
2018-09-30T04:12:23.966Z,0.00
2018-09-30T04:13:23.932Z,0.00
2018-09-30T04:14:23.917Z,0.00
2018-09-30T04:15:23.873Z,0.00
2018-09-30T04:16:23.854Z,0.00
2018-09-30T04:17:23.899Z,0.00
2018-09-30T04:18:23.793Z,0.00
2018-09-30T04:19:23.766Z,0.00
2018-09-30T04:20:23.747Z,0.00
2018-09-30T04:21:23.720Z,0.00
2018-09-30T04:22:23.688Z,0.00
2018-09-30T04:23:23.661Z,0.00
2018-09-30T04:24:23.626Z,0.00
2018-09-30T04:25:23.610Z,0.00
2018-09-30T04:26:23.580Z,0.00
2018-09-30T04:27:23.544Z,0.00
2018-09-30T04:28:23.527Z,0.00
2018-09-30T04:29:23.490Z,0.00
2018-09-30T04:30:23.461Z,0.00
2018-09-30T04:31:23.444Z,0.00
2018-09-30T04:32:23.404Z,0.00
2018-09-30T04:33:23.468Z,0.00
2018-09-30T04:34:23.364Z,0.00
2018-09-30T04:35:23.331Z,0.00
2018-09-30T04:36:23.303Z,0.00
2018-09-30T04:37:23.279Z,0.00
2018-09-30T04:38:23.256Z,0.00
2018-09-30T04:39:23.216Z,0.00
2018-09-30T04:40:23.185Z,0.00
2018-09-30T04:41:23.166Z,0.00
2018-09-30T04:42:23.140Z,0.00
2018-09-30T04:43:23.112Z,0.00
2018-09-30T04:44:23.083Z,0.00
2018-09-30T04:45:23.049Z,0.00
2018-09-30T04:46:23.023Z,0.00
2018-09-30T04:47:23.000Z,0.00
2018-09-30T04:48:22.978Z,0.00
2018-09-30T04:49:22.940Z,0.00
2018-09-30T04:50:22.919Z,0.00
2018-09-30T04:51:22.886Z,0.00
2018-09-30T04:52:22.868Z,0.00
2018-09-30T04:53:22.831Z,0.00
2018-09-30T04:54:22.804Z,0.00
2018-09-30T04:55:22.780Z,0.00
2018-09-30T04:56:22.757Z,0.00
2018-09-30T04:57:22.719Z,0.00
2018-09-30T04:58:22.693Z,0.00
2018-09-30T04:59:22.672Z,0.00
2018-09-30T05:00:22.657Z,0.00
2018-09-30T05:01:22.617Z,0.00
2018-09-30T05:02:22.592Z,0.00
2018-09-30T05:03:22.557Z,0.00
2018-09-30T05:04:22.527Z,0.00
2018-09-30T05:05:22.509Z,0.00
2018-09-30T05:06:22.470Z,4.00
2018-09-30T05:07:22.451Z,0.00
2018-09-30T05:08:22.428Z,0.00
2018-09-30T05:09:22.393Z,4.00
2018-09-30T05:10:22.372Z,4.00
2018-09-30T05:11:22.331Z,4.00
2018-09-30T05:12:22.315Z,4.00
2018-09-30T05:13:22.281Z,4.00
2018-09-30T05:14:22.262Z,4.00
2018-09-30T05:15:22.231Z,8.00
2018-09-30T05:16:22.256Z,8.00
2018-09-30T05:17:22.179Z,12.00
2018-09-30T05:18:22.146Z,12.00
2018-09-30T05:19:22.115Z,16.00
2018-09-30T05:20:22.092Z,20.00
2018-09-30T05:21:22.061Z,24.00
2018-09-30T05:22:22.036Z,24.00
2018-09-30T05:23:22.004Z,28.00
2018-09-30T05:24:21.988Z,36.00
2018-09-30T05:25:21.949Z,40.00
2018-09-30T05:26:21.931Z,44.00
2018-09-30T05:27:21.899Z,52.00
2018-09-30T05:28:21.864Z,60.00
2018-09-30T05:29:21.840Z,64.00
2018-09-30T05:30:21.813Z,72.00
2018-09-30T05:31:21.842Z,80.00
2018-09-30T05:32:21.762Z,84.00
2018-09-30T05:33:21.728Z,96.00
2018-09-30T05:34:21.705Z,104.00
2018-09-30T05:35:21.676Z,112.00
2018-09-30T05:36:21.657Z,120.00
2018-09-30T05:37:21.618Z,128.00
2018-09-30T05:38:21.593Z,140.00
2018-09-30T05:39:21.571Z,148.00
2018-09-30T05:40:21.539Z,160.00
2018-09-30T05:41:21.509Z,168.00
2018-09-30T05:42:21.497Z,180.00
2018-09-30T05:43:21.454Z,188.00
2018-09-30T05:44:21.425Z,200.00
2018-09-30T05:45:21.398Z,208.00
2018-09-30T05:46:21.374Z,216.00
2018-09-30T05:47:21.349Z,228.00
2018-09-30T05:48:21.325Z,236.00
2018-09-30T05:49:21.294Z,244.00
2018-09-30T05:50:21.265Z,256.00
2018-09-30T05:51:21.240Z,264.00
2018-09-30T05:52:21.211Z,272.00
2018-09-30T05:53:21.180Z,284.00
2018-09-30T05:54:21.153Z,292.00
2018-09-30T05:55:21.130Z,300.00
2018-09-30T05:56:21.102Z,312.00
2018-09-30T05:57:21.068Z,320.00
2018-09-30T05:58:21.049Z,324.00
2018-09-30T05:59:21.013Z,336.00
2018-09-30T06:00:20.989Z,344.00
2018-09-30T06:01:20.970Z,352.00
2018-09-30T06:02:20.928Z,360.00
2018-09-30T06:03:20.912Z,368.00
2018-09-30T06:04:20.890Z,376.00
2018-09-30T06:05:20.861Z,380.00
2018-09-30T06:06:20.829Z,388.00
2018-09-30T06:07:20.796Z,400.00
2018-09-30T06:08:20.766Z,404.00
2018-09-30T06:09:20.798Z,408.00
2018-09-30T06:10:20.713Z,420.00
2018-09-30T06:11:20.685Z,428.00
2018-09-30T06:12:20.655Z,432.00
2018-09-30T06:13:20.740Z,440.00
2018-09-30T06:14:20.634Z,444.00
2018-09-30T06:15:20.591Z,448.00
2018-09-30T06:16:20.551Z,456.00
2018-09-30T06:17:20.523Z,460.00
2018-09-30T06:18:20.513Z,468.00
2018-09-30T06:19:20.462Z,476.00
2018-09-30T06:20:20.435Z,480.00
2018-09-30T06:21:20.433Z,480.00
2018-09-30T06:22:20.394Z,488.00
2018-09-30T06:23:20.374Z,492.00
2018-09-30T06:24:20.325Z,500.00
2018-09-30T06:25:20.306Z,504.00
2018-09-30T06:26:20.278Z,504.00
2018-09-30T06:27:20.244Z,512.00
2018-09-30T06:28:20.218Z,516.00
2018-09-30T06:29:20.185Z,524.00
2018-09-30T06:30:20.163Z,528.00
2018-09-30T06:31:20.139Z,528.00
2018-09-30T06:32:20.105Z,532.00
2018-09-30T06:33:20.103Z,540.00
2018-09-30T06:34:20.055Z,544.00
2018-09-30T06:35:20.042Z,548.00
2018-09-30T06:36:20.003Z,552.00
2018-09-30T06:37:19.995Z,556.00
2018-09-30T06:38:19.942Z,556.00
2018-09-30T06:39:19.917Z,560.00
2018-09-30T06:40:19.981Z,564.00
2018-09-30T06:41:19.862Z,568.00
2018-09-30T06:42:19.861Z,572.00
2018-09-30T06:43:19.805Z,576.00
2018-09-30T06:44:19.785Z,576.00
2018-09-30T06:45:19.758Z,580.00
2018-09-30T06:46:19.725Z,584.00
2018-09-30T06:47:19.704Z,588.00
2018-09-30T06:48:19.672Z,592.00
2018-09-30T06:49:19.645Z,592.00
2018-09-30T06:50:19.660Z,600.00
2018-09-30T06:51:19.631Z,604.00
2018-09-30T06:52:19.570Z,604.00
2018-09-30T06:53:19.533Z,608.00
2018-09-30T06:54:19.501Z,608.00
2018-09-30T06:55:19.473Z,612.00
2018-09-30T06:56:19.444Z,616.00
2018-09-30T06:57:19.437Z,620.00
2018-09-30T06:58:19.389Z,620.00
2018-09-30T06:59:19.372Z,624.00
2018-09-30T07:00:19.346Z,628.00
2018-09-30T07:01:19.307Z,628.00
2018-09-30T07:02:19.288Z,632.00
2018-09-30T07:03:19.256Z,636.00
2018-09-30T07:04:19.225Z,640.00
2018-09-30T07:05:19.201Z,636.00
2018-09-30T07:06:19.172Z,640.00
2018-09-30T07:07:19.149Z,644.00
2018-09-30T07:08:19.123Z,644.00
2018-09-30T07:09:19.093Z,652.00
2018-09-30T07:10:19.072Z,652.00
2018-09-30T07:11:19.038Z,652.00
2018-09-30T07:12:19.017Z,652.00
2018-09-30T07:13:18.980Z,656.00
2018-09-30T07:14:18.951Z,656.00
2018-09-30T07:15:18.935Z,656.00
2018-09-30T07:16:18.900Z,660.00
2018-09-30T07:17:18.879Z,660.00
2018-09-30T07:18:18.850Z,664.00
2018-09-30T07:19:18.818Z,664.00
2018-09-30T07:20:18.791Z,664.00
2018-09-30T07:21:18.765Z,668.00
2018-09-30T07:22:18.805Z,668.00
2018-09-30T07:23:18.704Z,668.00
2018-09-30T07:24:18.682Z,672.00
2018-09-30T07:25:18.652Z,672.00
2018-09-30T07:26:18.621Z,676.00
2018-09-30T07:27:18.603Z,672.00
2018-09-30T07:28:18.576Z,676.00
2018-09-30T07:29:18.545Z,676.00
2018-09-30T07:30:18.518Z,676.00
2018-09-30T07:31:18.491Z,680.00
2018-09-30T07:32:18.473Z,680.00
2018-09-30T07:33:18.445Z,680.00
2018-09-30T07:34:18.407Z,684.00
2018-09-30T07:35:18.391Z,684.00
2018-09-30T07:36:18.354Z,684.00
2018-09-30T07:37:18.326Z,684.00
2018-09-30T07:38:18.293Z,688.00
2018-09-30T07:39:18.279Z,688.00
2018-09-30T07:40:18.241Z,692.00
2018-09-30T07:41:18.217Z,692.00
2018-09-30T07:42:18.192Z,692.00
2018-09-30T07:43:18.160Z,696.00
2018-09-30T07:44:18.133Z,696.00
2018-09-30T07:45:18.108Z,696.00
2018-09-30T07:46:18.081Z,696.00
2018-09-30T07:47:18.053Z,700.00
2018-09-30T07:48:18.020Z,700.00
2018-09-30T07:49:18.009Z,700.00
2018-09-30T07:50:17.975Z,700.00
2018-09-30T07:51:17.943Z,704.00
2018-09-30T07:52:17.916Z,704.00
2018-09-30T07:53:17.888Z,708.00
2018-09-30T07:54:17.862Z,708.00
2018-09-30T07:55:17.840Z,708.00
2018-09-30T07:56:17.806Z,708.00
2018-09-30T07:57:17.779Z,712.00
2018-09-30T07:58:17.754Z,708.00
2018-09-30T07:59:17.729Z,708.00
2018-09-30T08:00:17.693Z,708.00
2018-09-30T08:01:17.675Z,712.00
2018-09-30T08:02:17.645Z,716.00
2018-09-30T08:03:17.622Z,716.00
2018-09-30T08:04:17.596Z,720.00
2018-09-30T08:05:17.557Z,724.00
2018-09-30T08:06:17.545Z,724.00
2018-09-30T08:07:17.503Z,728.00
2018-09-30T08:08:17.478Z,728.00
2018-09-30T08:09:17.454Z,724.00
2018-09-30T08:10:17.427Z,724.00
2018-09-30T08:11:17.396Z,724.00
2018-09-30T08:12:17.376Z,724.00
2018-09-30T08:13:17.341Z,724.00
2018-09-30T08:14:17.315Z,724.00
2018-09-30T08:15:17.285Z,724.00
2018-09-30T08:16:17.264Z,720.00
2018-09-30T08:17:17.238Z,724.00
2018-09-30T08:18:17.216Z,720.00
2018-09-30T08:19:17.179Z,724.00
2018-09-30T08:20:17.157Z,716.00
2018-09-30T08:21:17.129Z,716.00
2018-09-30T08:22:17.097Z,716.00
2018-09-30T08:23:17.081Z,720.00
2018-09-30T08:24:17.105Z,716.00
2018-09-30T08:25:17.017Z,720.00
2018-09-30T08:26:16.989Z,720.00
2018-09-30T08:27:16.967Z,720.00
2018-09-30T08:28:16.932Z,724.00
2018-09-30T08:29:16.917Z,720.00
2018-09-30T08:30:16.887Z,720.00
2018-09-30T08:31:16.856Z,724.00
2018-09-30T08:32:16.834Z,724.00
2018-09-30T08:33:16.807Z,724.00
2018-09-30T08:34:16.778Z,724.00
2018-09-30T08:35:16.748Z,724.00
2018-09-30T08:36:16.726Z,724.00
2018-09-30T08:37:16.690Z,720.00
2018-09-30T08:38:16.682Z,724.00
2018-09-30T08:39:16.642Z,720.00
2018-09-30T08:40:16.610Z,724.00
2018-09-30T08:41:16.591Z,724.00
2018-09-30T08:42:16.727Z,724.00
2018-09-30T08:43:16.539Z,724.00
2018-09-30T08:44:16.598Z,728.00
2018-09-30T08:45:16.474Z,724.00
2018-09-30T08:46:16.465Z,728.00
2018-09-30T08:47:16.534Z,728.00
2018-09-30T08:48:16.401Z,724.00
2018-09-30T08:49:16.402Z,728.00
2018-09-30T08:50:16.343Z,728.00
2018-09-30T08:51:16.322Z,728.00
2018-09-30T08:52:16.295Z,728.00
2018-09-30T08:53:16.270Z,728.00
2018-09-30T08:54:16.241Z,728.00
2018-09-30T08:55:16.208Z,728.00
2018-09-30T08:56:16.233Z,732.00
2018-09-30T08:57:16.160Z,732.00
2018-09-30T08:58:16.134Z,728.00
2018-09-30T08:59:16.105Z,732.00
2018-09-30T09:00:16.082Z,732.00
2018-09-30T09:01:16.061Z,732.00
2018-09-30T09:02:16.032Z,728.00
2018-09-30T09:03:15.994Z,732.00
2018-09-30T09:04:15.966Z,728.00
2018-09-30T09:05:15.948Z,732.00
2018-09-30T09:06:15.915Z,728.00
2018-09-30T09:07:15.892Z,728.00
2018-09-30T09:08:15.879Z,732.00
2018-09-30T09:09:15.833Z,736.00
2018-09-30T09:10:15.815Z,732.00
2018-09-30T09:11:15.776Z,736.00
2018-09-30T09:12:15.753Z,740.00
2018-09-30T09:13:15.727Z,740.00
2018-09-30T09:14:15.703Z,736.00
2018-09-30T09:15:15.682Z,736.00
2018-09-30T09:16:15.653Z,736.00
2018-09-30T09:17:15.623Z,736.00
2018-09-30T09:18:15.593Z,732.00
2018-09-30T09:19:15.563Z,736.00
2018-09-30T09:20:15.546Z,744.00
2018-09-30T09:21:15.525Z,740.00
2018-09-30T09:22:15.519Z,744.00
2018-09-30T09:23:15.458Z,740.00
2018-09-30T09:24:15.437Z,740.00
2018-09-30T09:25:15.406Z,736.00
2018-09-30T09:26:15.384Z,736.00
2018-09-30T09:27:15.367Z,744.00
2018-09-30T09:28:15.330Z,740.00
2018-09-30T09:29:15.307Z,744.00
2018-09-30T09:30:15.277Z,744.00
2018-09-30T09:31:15.252Z,744.00
2018-09-30T09:32:15.227Z,748.00
2018-09-30T09:33:15.196Z,756.00
2018-09-30T09:34:15.197Z,748.00
2018-09-30T09:35:15.222Z,748.00
2018-09-30T09:36:15.118Z,744.00
2018-09-30T09:37:15.102Z,744.00
2018-09-30T09:38:15.068Z,752.00
2018-09-30T09:39:15.040Z,748.00
2018-09-30T09:40:15.012Z,748.00
2018-09-30T09:41:14.980Z,752.00
2018-09-30T09:42:14.957Z,752.00
2018-09-30T09:43:14.929Z,752.00
2018-09-30T09:44:14.904Z,752.00
2018-09-30T09:45:14.873Z,760.00
2018-09-30T09:46:14.848Z,760.00
2018-09-30T09:47:14.823Z,756.00
2018-09-30T09:48:14.798Z,756.00
2018-09-30T09:49:14.768Z,752.00
2018-09-30T09:50:14.746Z,756.00
2018-09-30T09:51:14.720Z,760.00
2018-09-30T09:52:14.689Z,756.00
2018-09-30T09:53:14.661Z,752.00
2018-09-30T09:54:14.632Z,756.00
2018-09-30T09:55:14.618Z,760.00
2018-09-30T09:56:14.580Z,760.00
2018-09-30T09:57:14.557Z,760.00
2018-09-30T09:58:14.537Z,756.00
2018-09-30T09:59:14.693Z,756.00
2018-09-30T10:00:14.479Z,764.00
2018-09-30T10:01:14.456Z,760.00
2018-09-30T10:02:14.419Z,764.00
2018-09-30T10:03:14.402Z,764.00
2018-09-30T10:04:14.369Z,760.00
2018-09-30T10:05:14.402Z,760.00
2018-09-30T10:06:14.326Z,760.00
2018-09-30T10:07:14.336Z,756.00
2018-09-30T10:08:14.286Z,760.00
2018-09-30T10:09:14.243Z,756.00
2018-09-30T10:10:14.215Z,752.00
2018-09-30T10:11:14.183Z,756.00
2018-09-30T10:12:14.160Z,752.00
2018-09-30T10:13:14.139Z,748.00
2018-09-30T10:14:14.104Z,744.00
2018-09-30T10:15:14.090Z,744.00
2018-09-30T10:16:14.054Z,744.00
2018-09-30T10:17:14.022Z,748.00
2018-09-30T10:18:14.009Z,748.00
2018-09-30T10:19:15.691Z,748.00
2018-09-30T10:20:13.950Z,748.00
2018-09-30T10:21:13.920Z,752.00
2018-09-30T10:22:13.895Z,748.00
2018-09-30T10:23:13.871Z,744.00
2018-09-30T10:24:13.842Z,748.00
2018-09-30T10:25:13.819Z,752.00
2018-09-30T10:26:13.787Z,756.00
2018-09-30T10:27:13.766Z,752.00
2018-09-30T10:28:13.740Z,756.00
2018-09-30T10:29:13.705Z,756.00
2018-09-30T10:30:13.690Z,756.00
2018-09-30T10:31:13.652Z,756.00
2018-09-30T10:32:13.634Z,760.00
2018-09-30T10:33:13.604Z,760.00
2018-09-30T10:34:13.573Z,764.00
2018-09-30T10:35:13.549Z,760.00
2018-09-30T10:36:13.530Z,760.00
2018-09-30T10:37:13.501Z,764.00
2018-09-30T10:38:13.493Z,760.00
2018-09-30T10:39:13.726Z,756.00
2018-09-30T10:40:13.426Z,760.00
2018-09-30T10:41:13.389Z,756.00
2018-09-30T10:42:13.366Z,756.00
2018-09-30T10:43:13.341Z,760.00
2018-09-30T10:44:13.316Z,760.00
2018-09-30T10:45:13.285Z,760.00
2018-09-30T10:46:13.273Z,760.00
2018-09-30T10:47:13.236Z,760.00
2018-09-30T10:48:13.215Z,764.00
2018-09-30T10:49:13.183Z,764.00
2018-09-30T10:50:13.155Z,764.00
2018-09-30T10:51:13.127Z,764.00
2018-09-30T10:52:13.099Z,764.00
2018-09-30T10:53:13.083Z,760.00
2018-09-30T10:54:13.049Z,760.00
2018-09-30T10:55:13.046Z,760.00
2018-09-30T10:56:12.993Z,760.00
2018-09-30T10:57:12.976Z,760.00
2018-09-30T10:58:12.942Z,764.00
2018-09-30T10:59:12.922Z,764.00
2018-09-30T11:00:12.890Z,764.00
2018-09-30T11:01:12.868Z,764.00
2018-09-30T11:02:12.850Z,764.00
2018-09-30T11:03:12.811Z,764.00
2018-09-30T11:04:12.819Z,768.00
2018-09-30T11:05:12.762Z,772.00
2018-09-30T11:06:12.747Z,768.00
2018-09-30T11:07:12.715Z,768.00
2018-09-30T11:08:12.697Z,768.00
2018-09-30T11:09:12.653Z,768.00
2018-09-30T11:10:12.654Z,772.00
2018-09-30T11:11:12.603Z,772.00
2018-09-30T11:12:13.232Z,772.00
2018-09-30T11:13:12.548Z,772.00
2018-09-30T11:14:12.532Z,772.00
2018-09-30T11:15:12.503Z,776.00
2018-09-30T11:16:12.589Z,776.00
2018-09-30T11:17:12.447Z,776.00
2018-09-30T11:18:12.421Z,780.00
2018-09-30T11:19:12.397Z,780.00
2018-09-30T11:20:12.365Z,780.00
2018-09-30T11:21:12.342Z,780.00
2018-09-30T11:22:12.316Z,780.00
2018-09-30T11:23:12.290Z,780.00
2018-09-30T11:24:12.264Z,784.00
2018-09-30T11:25:12.234Z,784.00
2018-09-30T11:26:12.212Z,788.00
2018-09-30T11:27:12.189Z,792.00
2018-09-30T11:28:12.164Z,788.00
2018-09-30T11:29:12.131Z,792.00
2018-09-30T11:30:12.102Z,792.00
2018-09-30T11:31:12.082Z,792.00
2018-09-30T11:32:12.058Z,792.00
2018-09-30T11:33:12.024Z,796.00
2018-09-30T11:34:12.013Z,796.00
2018-09-30T11:35:11.969Z,800.00
2018-09-30T11:36:11.953Z,796.00
2018-09-30T11:37:11.928Z,800.00
2018-09-30T11:38:11.898Z,804.00
2018-09-30T11:39:11.874Z,804.00
2018-09-30T11:40:11.853Z,804.00
2018-09-30T11:41:11.821Z,808.00
2018-09-30T11:42:11.796Z,808.00
2018-09-30T11:43:11.772Z,812.00
2018-09-30T11:44:11.738Z,808.00
2018-09-30T11:45:11.721Z,812.00
2018-09-30T11:46:11.687Z,812.00
2018-09-30T11:47:11.663Z,816.00
2018-09-30T11:48:11.638Z,824.00
2018-09-30T11:49:11.608Z,820.00
2018-09-30T11:50:11.698Z,820.00
2018-09-30T11:51:11.559Z,824.00
2018-09-30T11:52:11.530Z,824.00
2018-09-30T11:53:11.504Z,824.00
2018-09-30T11:54:11.482Z,832.00
2018-09-30T11:55:11.457Z,832.00
2018-09-30T11:56:11.428Z,832.00
2018-09-30T11:57:11.400Z,832.00
2018-09-30T11:58:11.381Z,832.00
2018-09-30T11:59:11.345Z,832.00
2018-09-30T12:00:11.340Z,836.00
2018-09-30T12:01:11.322Z,836.00
2018-09-30T12:02:11.290Z,840.00
2018-09-30T12:03:11.241Z,840.00
2018-09-30T12:04:11.239Z,844.00
2018-09-30T12:05:11.194Z,840.00
2018-09-30T12:06:11.164Z,848.00
2018-09-30T12:07:11.146Z,848.00
2018-09-30T12:08:11.117Z,852.00
2018-09-30T12:09:11.088Z,852.00
2018-09-30T12:10:11.058Z,856.00
2018-09-30T12:11:11.039Z,856.00
2018-09-30T12:12:11.007Z,860.00
2018-09-30T12:13:10.987Z,864.00
2018-09-30T12:14:10.963Z,864.00
2018-09-30T12:15:10.926Z,868.00
2018-09-30T12:16:10.906Z,868.00
2018-09-30T12:17:10.880Z,872.00
2018-09-30T12:18:10.857Z,876.00
2018-09-30T12:19:10.878Z,876.00
2018-09-30T12:20:10.806Z,876.00
2018-09-30T12:21:10.781Z,876.00
2018-09-30T12:22:10.747Z,880.00
2018-09-30T12:23:10.729Z,880.00
2018-09-30T12:24:10.702Z,884.00
2018-09-30T12:25:10.676Z,880.00
2018-09-30T12:26:10.644Z,884.00
2018-09-30T12:27:10.625Z,884.00
2018-09-30T12:28:10.597Z,884.00
2018-09-30T12:29:10.566Z,888.00
2018-09-30T12:30:10.544Z,888.00
2018-09-30T12:31:10.517Z,896.00
2018-09-30T12:32:10.491Z,892.00
2018-09-30T12:33:10.463Z,896.00
2018-09-30T12:34:10.436Z,896.00
2018-09-30T12:35:10.417Z,896.00
2018-09-30T12:36:10.383Z,900.00
2018-09-30T12:37:10.361Z,900.00
2018-09-30T12:38:10.340Z,900.00
2018-09-30T12:39:10.366Z,900.00
2018-09-30T12:40:10.283Z,908.00
2018-09-30T12:41:10.254Z,908.00
2018-09-30T12:42:10.230Z,912.00
2018-09-30T12:43:10.202Z,912.00
2018-09-30T12:44:10.183Z,916.00
2018-09-30T12:45:10.159Z,920.00
2018-09-30T12:46:10.125Z,928.00
2018-09-30T12:47:10.101Z,928.00
2018-09-30T12:48:10.073Z,928.00